createdAt,value
2022-11-28T00:01:26.198Z,99113.12
2022-11-28T00:03:52.975Z,99113.79
2022-11-28T00:06:19.914Z,99110.03
2022-11-28T00:08:46.993Z,99105.59
2022-11-28T00:11:15.572Z,99104.40
2022-11-28T00:13:43.577Z,99103.73
2022-11-28T00:16:15.121Z,99107.36
2022-11-28T00:18:41.844Z,99109.08
2022-11-28T00:21:11.618Z,99107.04
2022-11-28T00:23:38.723Z,99106.88
2022-11-28T00:26:10.286Z,99107.05
2022-11-28T00:28:37.645Z,99104.64
2022-11-28T00:31:04.605Z,99107.52
2022-11-28T00:33:32.805Z,99109.41
2022-11-28T00:36:02.110Z,99110.59
2022-11-28T00:38:29.633Z,99106.29
2022-11-28T00:41:07.510Z,99107.15
2022-11-28T00:43:34.473Z,99105.96
2022-11-28T00:46:01.166Z,99106.48
2022-11-28T00:48:27.806Z,99103.23
2022-11-28T00:50:55.648Z,99104.58
2022-11-28T00:53:22.328Z,99107.97
2022-11-28T00:55:48.863Z,99102.14
2022-11-28T00:58:15.383Z,99101.11
2022-11-28T01:00:42.229Z,99104.02
2022-11-28T01:03:08.786Z,99101.83
2022-11-28T01:05:40.758Z,99102.19
2022-11-28T01:08:07.879Z,99106.15
2022-11-28T01:10:34.435Z,99108.91
2022-11-28T01:13:00.967Z,99109.77
2022-11-28T01:15:27.720Z,99104.33
2022-11-28T01:17:54.181Z,99100.92
2022-11-28T01:20:20.583Z,99101.79
2022-11-28T01:22:47.140Z,99094.27
2022-11-28T01:25:13.682Z,99086.73
2022-11-28T01:27:40.176Z,99088.95
2022-11-28T01:30:07.733Z,99088.76
2022-11-28T01:32:34.428Z,99083.29
2022-11-28T01:35:00.966Z,99079.87
2022-11-28T01:37:29.534Z,99077.48
2022-11-28T01:39:56.398Z,99074.23
2022-11-28T01:42:23.345Z,99074.58
2022-11-28T01:44:49.707Z,99066.21
2022-11-28T01:47:21.133Z,99062.29
2022-11-28T01:49:49.210Z,99062.29
2022-11-28T01:52:19.609Z,99060.92
2022-11-28T01:54:50.900Z,99055.78
2022-11-28T01:57:21.889Z,99055.27
2022-11-28T01:59:56.145Z,99049.96
2022-11-28T02:02:33.766Z,99051.34
2022-11-28T02:05:01.335Z,99048.23
2022-11-28T02:07:28.279Z,99047.20
2022-11-28T02:09:55.336Z,99046.52
2022-11-28T02:12:40.297Z,99045.66
2022-11-28T02:15:26.959Z,99043.79
2022-11-28T02:18:02.568Z,99036.78
2022-11-28T02:20:52.149Z,99036.61
2022-11-28T02:23:23.613Z,99028.55
2022-11-28T02:26:08.732Z,99027.66
2022-11-28T02:29:02.186Z,99021.49
2022-11-28T02:31:56.699Z,99021.98
2022-11-28T02:34:52.520Z,99017.19
2022-11-28T02:37:34.797Z,99016.33
2022-11-28T02:40:27.223Z,99010.88
2022-11-28T02:43:05.410Z,99003.54
2022-11-28T02:45:49.919Z,99000.15
2022-11-28T02:48:34.695Z,99003.27
2022-11-28T02:51:16.723Z,98999.55
2022-11-28T02:53:46.022Z,98999.55
2022-11-28T02:56:13.250Z,98999.73
2022-11-28T02:58:40.296Z,98996.83
2022-11-28T03:01:17.613Z,98995.48
2022-11-28T03:03:53.140Z,98999.92
2022-11-28T03:06:47.840Z,99001.11
2022-11-28T03:09:44.242Z,98997.35
2022-11-28T03:12:35.406Z,98995.66
2022-11-28T03:15:05.139Z,98998.22
2022-11-28T03:17:40.594Z,98998.73
2022-11-28T03:20:21.051Z,99001.80
2022-11-28T03:22:56.216Z,98998.05
2022-11-28T03:25:44.841Z,98989.16
2022-11-28T03:28:26.438Z,98988.65
2022-11-28T03:30:57.545Z,98988.14
2022-11-28T03:33:27.697Z,98990.54
2022-11-28T03:36:09.202Z,98988.84
2022-11-28T03:38:41.377Z,98989.52
2022-11-28T03:41:15.113Z,98985.77
2022-11-28T03:43:50.042Z,98978.40
2022-11-28T03:46:20.380Z,98974.96
2022-11-28T03:48:51.299Z,98974.27
2022-11-28T03:51:25.552Z,98974.45
2022-11-28T03:53:59.635Z,98970.52
2022-11-28T03:56:41.640Z,98968.80
2022-11-28T03:59:15.959Z,98970.34
2022-11-28T04:01:54.800Z,98968.79
2022-11-28T04:04:32.107Z,98966.69
2022-11-28T04:07:18.343Z,98964.30
2022-11-28T04:09:53.972Z,98964.13
2022-11-28T04:12:44.856Z,98968.20
2022-11-28T04:15:22.663Z,98966.84
2022-11-28T04:18:00.098Z,98964.09
2022-11-28T04:20:32.527Z,98962.55
2022-11-28T04:23:07.284Z,98960.83
2022-11-28T04:25:38.016Z,98962.53
2022-11-28T04:28:15.743Z,98969.19
2022-11-28T04:30:44.553Z,98964.92
2022-11-28T04:33:15.382Z,98963.73
2022-11-28T04:35:47.423Z,98965.46
2022-11-28T04:38:14.242Z,98962.22
2022-11-28T04:41:22.289Z,98962.56
2022-11-28T04:44:00.195Z,98961.02
2022-11-28T04:46:36.471Z,98962.23
2022-11-28T04:49:03.409Z,98961.17
2022-11-28T04:51:51.434Z,98960.31
2022-11-28T04:54:30.904Z,98961.00
2022-11-28T04:57:31.752Z,98954.99
2022-11-28T05:00:01.211Z,98956.02
2022-11-28T05:02:29.489Z,98957.22
2022-11-28T05:04:56.082Z,98952.77
2022-11-28T05:07:23.187Z,98947.33
2022-11-28T05:09:50.301Z,98941.85
2022-11-28T05:12:17.238Z,98942.73
2022-11-28T05:14:43.860Z,98938.79
2022-11-28T05:17:13.274Z,98936.05
2022-11-28T05:19:39.839Z,98935.05
2022-11-28T05:22:06.227Z,98929.08
2022-11-28T05:24:32.649Z,98929.28
2022-11-28T05:26:59.126Z,98932.04
2022-11-28T05:29:25.663Z,98935.64
2022-11-28T05:31:52.172Z,98937.02
2022-11-28T05:34:18.712Z,98939.77
2022-11-28T05:36:45.111Z,98938.06
2022-11-28T05:39:11.495Z,98940.64
2022-11-28T05:41:37.966Z,98942.50
2022-11-28T05:44:04.403Z,98940.78
2022-11-28T05:46:30.858Z,98943.17
2022-11-28T05:48:57.413Z,98945.23
2022-11-28T05:51:24.521Z,98939.58
2022-11-28T05:53:51.088Z,98933.77
2022-11-28T05:56:19.944Z,98936.16
2022-11-28T05:58:46.722Z,98934.23
2022-11-28T06:01:16.325Z,98934.37
2022-11-28T06:03:44.138Z,98932.83
2022-11-28T06:06:17.215Z,98941.77
2022-11-28T06:08:44.803Z,98939.20
2022-11-28T06:11:12.128Z,98941.44
2022-11-28T06:13:38.882Z,98941.63
2022-11-28T06:16:17.873Z,98943.16
2022-11-28T06:18:45.171Z,98944.69
2022-11-28T06:21:14.174Z,98944.34
2022-11-28T06:23:40.865Z,98945.51
2022-11-28T06:26:12.881Z,98945.48
2022-11-28T06:28:40.137Z,98941.35
2022-11-28T06:31:11.977Z,98946.12
2022-11-28T06:33:38.989Z,98943.02
2022-11-28T06:36:07.205Z,98941.66
2022-11-28T06:38:34.588Z,98943.55
2022-11-28T06:41:05.028Z,98938.58
2022-11-28T06:43:32.187Z,98937.71
2022-11-28T06:45:59.377Z,98939.95
2022-11-28T06:48:26.989Z,98935.29
2022-11-28T06:50:54.113Z,98935.96
2022-11-28T06:53:20.898Z,98933.55
2022-11-28T06:55:47.399Z,98935.38
2022-11-28T06:58:13.887Z,98931.26
2022-11-28T07:00:40.624Z,98931.73
2022-11-28T07:03:07.137Z,98927.73
2022-11-28T07:05:33.538Z,98925.45
2022-11-28T07:08:00.541Z,98923.50
2022-11-28T07:10:28.429Z,98926.85
2022-11-28T07:13:04.896Z,98926.44
2022-11-28T07:15:32.011Z,98923.84
2022-11-28T07:17:58.458Z,98926.71
2022-11-28T07:20:24.884Z,98926.82
2022-11-28T07:22:51.356Z,98929.33
2022-11-28T07:25:18.014Z,98933.52
2022-11-28T07:27:44.425Z,98933.25
2022-11-28T07:30:11.092Z,98929.70
2022-11-28T07:32:40.717Z,98930.59
2022-11-28T07:35:08.080Z,98931.27
2022-11-28T07:37:34.942Z,98927.01
2022-11-28T07:40:01.628Z,98923.64
2022-11-28T07:42:28.194Z,98923.73
2022-11-28T07:44:54.631Z,98919.91
2022-11-28T07:47:21.354Z,98919.13
2022-11-28T07:49:47.732Z,98921.27
2022-11-28T07:52:14.256Z,98920.81
2022-11-28T07:54:40.793Z,98916.27
2022-11-28T07:57:14.423Z,98914.75
2022-11-28T07:59:41.247Z,98910.48
2022-11-28T08:02:10.736Z,98907.89
2022-11-28T08:04:37.678Z,98908.96
2022-11-28T08:07:04.843Z,98905.09
2022-11-28T08:09:32.535Z,98898.91
2022-11-28T08:11:59.150Z,98899.66
2022-11-28T08:14:25.614Z,98898.55
2022-11-28T08:16:52.009Z,98900.05
2022-11-28T08:19:21.617Z,98898.23
2022-11-28T08:21:51.524Z,98896.35
2022-11-28T08:24:17.988Z,98888.60
2022-11-28T08:26:44.448Z,98887.41
2022-11-28T08:29:10.853Z,98883.86
2022-11-28T08:31:38.614Z,98881.75
2022-11-28T08:34:10.871Z,98883.89
2022-11-28T08:36:37.445Z,98876.42
2022-11-28T08:41:52.406Z,98879.98
2022-11-28T08:44:18.880Z,98882.02
2022-11-28T08:46:45.294Z,98880.07
2022-11-28T08:49:11.776Z,98872.87
2022-11-28T08:51:38.320Z,98875.91
2022-11-28T08:54:05.041Z,98875.70
2022-11-28T08:56:31.809Z,98878.37
2022-11-28T08:58:58.227Z,98875.30
2022-11-28T09:01:26.472Z,98871.09
2022-11-28T09:03:54.779Z,98872.45
2022-11-28T09:06:22.467Z,98864.90
2022-11-28T09:08:50.471Z,98867.41
2022-11-28T09:11:20.892Z,98869.89
2022-11-28T09:13:48.156Z,98865.16
2022-11-28T09:16:15.696Z,98861.77
2022-11-28T09:18:42.773Z,98855.44
2022-11-28T09:21:11.947Z,98854.76
2022-11-28T09:23:40.331Z,98852.90
2022-11-28T09:26:20.960Z,98851.29
2022-11-28T09:28:47.740Z,98849.21
2022-11-28T09:31:15.539Z,98847.37
2022-11-28T09:33:42.693Z,98844.87
2022-11-28T09:36:14.785Z,98840.04
2022-11-28T09:38:41.824Z,98839.41
2022-11-28T09:41:37.348Z,98834.89
2022-11-28T09:44:18.535Z,98829.48
2022-11-28T09:46:48.148Z,98826.13
2022-11-28T09:49:25.449Z,98823.21
2022-11-28T09:52:27.391Z,98821.29
2022-11-28T09:55:06.745Z,98817.54
2022-11-28T09:57:43.636Z,98809.02
2022-11-28T10:00:38.878Z,98806.73
2022-11-28T10:03:32.864Z,98800.05
2022-11-28T10:06:11.651Z,98793.50
2022-11-28T10:08:59.497Z,98785.02
2022-11-28T10:11:52.729Z,98783.85
2022-11-28T10:14:57.091Z,98779.29
2022-11-28T10:17:47.422Z,98778.42
2022-11-28T10:20:28.251Z,98772.98
2022-11-28T10:23:13.559Z,98772.59
2022-11-28T10:25:51.770Z,98770.65
2022-11-28T10:28:23.739Z,98768.53
2022-11-28T10:31:27.541Z,98765.66
2022-11-28T10:34:02.703Z,98763.45
2022-11-28T10:36:47.153Z,98761.25
2022-11-28T10:39:14.304Z,98757.39
2022-11-28T10:41:45.565Z,98754.64
2022-11-28T10:44:38.139Z,98755.71
2022-11-28T10:47:21.447Z,98758.48
2022-11-28T10:49:50.889Z,98755.45
2022-11-28T10:52:31.920Z,98753.70
2022-11-28T10:55:32.551Z,98752.02
2022-11-28T10:58:22.583Z,98746.74
2022-11-28T11:00:54.129Z,98744.75
2022-11-28T11:03:23.737Z,98747.41
2022-11-28T11:05:50.281Z,98745.23
2022-11-28T11:08:22.564Z,98743.58
2022-11-28T11:11:03.027Z,98742.52
2022-11-28T11:13:32.254Z,98735.70
2022-11-28T11:16:02.990Z,98736.95
2022-11-28T11:18:50.385Z,98740.85
2022-11-28T11:21:20.421Z,98738.36
2022-11-28T11:23:48.892Z,98739.59
2022-11-28T11:26:32.695Z,98739.90
2022-11-28T11:28:59.452Z,98741.15
2022-11-28T11:31:30.227Z,98739.60
2022-11-28T11:34:14.180Z,98733.58
2022-11-28T11:36:41.050Z,98735.06
2022-11-28T11:39:19.063Z,98733.02
2022-11-28T11:41:48.952Z,98734.45
2022-11-28T11:44:15.386Z,98734.93
2022-11-28T11:46:51.758Z,98731.45
2022-11-28T11:49:32.209Z,98728.45
2022-11-28T11:52:23.048Z,98732.28
2022-11-28T11:55:13.660Z,98727.23
2022-11-28T11:57:46.624Z,98727.37
2022-11-28T12:00:13.092Z,98727.23
2022-11-28T12:02:47.619Z,98725.37
2022-11-28T12:05:14.226Z,98728.08
2022-11-28T12:07:59.708Z,98723.73
2022-11-28T12:10:30.149Z,98717.95
2022-11-28T12:12:57.016Z,98716.83
2022-11-28T12:15:52.760Z,98718.07
2022-11-28T12:18:37.067Z,98718.17
2022-11-28T12:21:20.419Z,98718.38
2022-11-28T12:24:17.666Z,98721.31
2022-11-28T12:26:51.826Z,98719.25
2022-11-28T12:29:39.762Z,98718.48
2022-11-28T12:32:29.181Z,98721.94
2022-11-28T12:35:13.958Z,98720.50
2022-11-28T12:38:12.770Z,98716.63
2022-11-28T12:40:51.730Z,98716.57
2022-11-28T12:43:55.612Z,98714.66
2022-11-28T12:46:31.830Z,98715.74
2022-11-28T12:49:23.737Z,98708.66
2022-11-28T12:52:28.039Z,98707.39
2022-11-28T12:55:08.567Z,98713.33
2022-11-28T12:57:48.539Z,98713.44
2022-11-28T13:00:27.095Z,98716.91
2022-11-28T13:03:20.836Z,98713.21
2022-11-28T13:06:03.652Z,98717.17
2022-11-28T13:08:48.507Z,98718.45
2022-11-28T13:11:43.355Z,98719.19
2022-11-28T13:14:15.429Z,98715.50
2022-11-28T13:16:51.094Z,98717.44
2022-11-28T13:19:52.436Z,98716.61
2022-11-28T13:22:24.677Z,98718.65
2022-11-28T13:25:35.587Z,98718.11
2022-11-28T13:28:12.060Z,98715.52
2022-11-28T13:30:45.508Z,98713.10
2022-11-28T13:33:30.368Z,98720.30
2022-11-28T13:35:59.973Z,98718.77
2022-11-28T13:39:08.208Z,98719.61
2022-11-28T13:42:28.309Z,98723.59
2022-11-28T13:44:58.522Z,98722.77
2022-11-28T13:47:32.907Z,98719.58
2022-11-28T13:50:30.480Z,98720.98
2022-11-28T13:53:10.423Z,98722.73
2022-11-28T13:55:42.759Z,98719.77
2022-11-28T13:58:40.169Z,98716.94
2022-11-28T14:01:15.927Z,98713.42
2022-11-28T14:03:47.789Z,98712.65
2022-11-28T14:06:18.936Z,98705.84
2022-11-28T14:08:47.947Z,98711.52
2022-11-28T14:11:41.809Z,98709.13
2022-11-28T14:14:22.803Z,98707.30
2022-11-28T14:17:10.833Z,98706.33
2022-11-28T14:19:58.664Z,98708.36
2022-11-28T14:22:50.651Z,98710.75
2022-11-28T14:25:26.320Z,98713.00
2022-11-28T14:27:57.210Z,98709.02
2022-11-28T14:30:31.840Z,98714.84
2022-11-28T14:33:03.092Z,98707.54
2022-11-28T14:35:54.561Z,98707.28
2022-11-28T14:38:30.023Z,98714.13
2022-11-28T14:40:56.504Z,98711.55
2022-11-28T14:43:46.535Z,98712.14
2022-11-28T14:46:16.297Z,98711.16
2022-11-28T14:49:17.356Z,98712.03
2022-11-28T14:51:49.658Z,98711.89
2022-11-28T14:54:34.403Z,98711.52
2022-11-28T14:57:02.166Z,98713.20
2022-11-28T14:59:33.846Z,98718.25
2022-11-28T15:02:12.337Z,98714.36
2022-11-28T15:04:38.767Z,98719.73
2022-11-28T15:07:16.965Z,98722.36
2022-11-28T15:09:52.815Z,98720.30
2022-11-28T15:12:40.799Z,98718.75
2022-11-28T15:15:13.788Z,98721.35
2022-11-28T15:17:44.129Z,98714.77
2022-11-28T15:20:39.684Z,98718.04
2022-11-28T15:23:35.069Z,98718.82
2022-11-28T15:26:02.928Z,98721.98
2022-11-28T15:28:31.243Z,98720.52
2022-11-28T15:31:00.894Z,98719.52
2022-11-28T15:33:28.472Z,98724.51
2022-11-28T15:36:02.118Z,98726.48
2022-11-28T15:38:31.194Z,98726.73
2022-11-28T15:40:59.194Z,98725.59
2022-11-28T15:43:26.529Z,98727.20
2022-11-28T15:45:56.247Z,98735.45
2022-11-28T15:48:25.758Z,98732.09
2022-11-28T15:50:52.811Z,98735.73
2022-11-28T15:53:20.884Z,98733.55
2022-11-28T15:55:48.037Z,98735.83
2022-11-28T15:58:25.539Z,98735.37
2022-11-28T16:01:02.873Z,98736.60
2022-11-28T16:03:34.796Z,98735.83
2022-11-28T16:06:02.853Z,98735.73
2022-11-28T16:08:35.454Z,98733.73
2022-11-28T16:11:05.060Z,98733.29
2022-11-28T16:13:32.467Z,98730.27
2022-11-28T16:16:01.549Z,98725.89
2022-11-28T16:18:29.404Z,98727.12
2022-11-28T16:20:58.270Z,98733.79
2022-11-28T16:23:32.795Z,98729.70
2022-11-28T16:26:19.131Z,98730.37
2022-11-28T16:28:57.866Z,98728.82
2022-11-28T16:31:27.061Z,98727.61
2022-11-28T16:33:53.992Z,98728.63
2022-11-28T16:36:36.493Z,98726.09
2022-11-28T16:39:14.351Z,98732.58
2022-11-28T16:41:43.926Z,98737.48
2022-11-28T16:44:14.264Z,98736.08
2022-11-28T16:46:58.002Z,98735.36
2022-11-28T16:49:32.513Z,98739.09
2022-11-28T16:52:23.834Z,98737.02
2022-11-28T16:54:51.509Z,98734.45
2022-11-28T16:57:18.578Z,98732.95
2022-11-28T16:59:46.126Z,98733.85
2022-11-28T17:02:16.619Z,98732.82
2022-11-28T17:04:43.996Z,98733.36
2022-11-28T17:07:16.076Z,98730.52
2022-11-28T17:09:44.486Z,98730.58
2022-11-28T17:12:14.923Z,98730.95
2022-11-28T17:14:41.545Z,98733.02
2022-11-28T17:17:16.993Z,98734.06
2022-11-28T17:19:44.199Z,98734.10
2022-11-28T17:22:16.833Z,98737.17
2022-11-28T17:24:44.466Z,98737.36
2022-11-28T17:27:14.723Z,98738.24
2022-11-28T17:29:42.143Z,98733.98
2022-11-28T17:32:13.641Z,98740.14
2022-11-28T17:34:40.781Z,98745.76
2022-11-28T17:37:08.053Z,98746.61
2022-11-28T17:39:34.759Z,98741.51
2022-11-28T17:42:01.216Z,98743.22
2022-11-28T17:44:33.800Z,98742.69
2022-11-28T17:47:02.004Z,98745.41
2022-11-28T17:49:29.585Z,98742.02
2022-11-28T17:51:56.281Z,98738.80
2022-11-28T17:54:25.202Z,98736.91
2022-11-28T17:56:52.870Z,98737.25
2022-11-28T17:59:23.993Z,98736.91
2022-11-28T18:01:50.820Z,98735.21
2022-11-28T18:04:17.711Z,98731.30
2022-11-28T18:06:45.328Z,98738.95
2022-11-28T18:09:13.292Z,98736.92
2022-11-28T18:11:43.042Z,98737.77
2022-11-28T18:14:09.745Z,98730.95
2022-11-28T18:16:36.678Z,98736.90
2022-11-28T18:19:04.322Z,98739.46
2022-11-28T18:21:31.584Z,98738.95
2022-11-28T18:23:58.057Z,98737.75
2022-11-28T18:26:25.467Z,98740.14
2022-11-28T18:28:52.439Z,98742.00
2022-11-28T18:31:24.658Z,98740.30
2022-11-28T18:33:52.935Z,98735.39
2022-11-28T18:36:24.236Z,98735.20
2022-11-28T18:39:02.271Z,98734.36
2022-11-28T18:41:30.103Z,98736.39
2022-11-28T18:43:58.491Z,98732.31
2022-11-28T18:46:26.089Z,98738.61
2022-11-28T18:48:53.515Z,98741.50
2022-11-28T18:51:26.065Z,98738.95
2022-11-28T18:53:56.225Z,98733.52
2022-11-28T18:56:23.886Z,98737.08
2022-11-28T18:58:53.140Z,98737.42
2022-11-28T19:01:31.107Z,98739.46
2022-11-28T19:04:00.324Z,98740.83
2022-11-28T19:06:27.147Z,98738.10
2022-11-28T19:08:56.572Z,98739.46
2022-11-28T19:11:23.409Z,98739.96
2022-11-28T19:13:50.764Z,98740.14
2022-11-28T19:16:20.189Z,98742.85
2022-11-28T19:18:47.015Z,98741.48
2022-11-28T19:21:16.634Z,98742.16
2022-11-28T19:23:43.774Z,98744.02
2022-11-28T19:26:12.887Z,98743.34
2022-11-28T19:28:41.463Z,98741.47
2022-11-28T19:31:13.096Z,98741.96
2022-11-28T19:33:39.663Z,98738.73
2022-11-28T19:36:08.376Z,98740.41
2022-11-28T19:38:36.598Z,98743.11
2022-11-28T19:41:14.725Z,98742.75
2022-11-28T19:43:41.797Z,98743.94
2022-11-28T19:46:09.508Z,98743.09
2022-11-28T19:48:37.514Z,98738.87
2022-11-28T19:51:05.223Z,98742.42
2022-11-28T19:53:33.059Z,98739.20
2022-11-28T19:56:18.871Z,98742.59
2022-11-28T19:58:46.000Z,98745.99
2022-11-28T20:01:24.079Z,98747.36
2022-11-28T20:03:51.501Z,98752.13
2022-11-28T20:06:23.592Z,98753.98
2022-11-28T20:08:51.466Z,98752.45
2022-11-28T20:11:23.636Z,98752.27
2022-11-28T20:13:55.265Z,98753.95
2022-11-28T20:16:21.854Z,98752.23
2022-11-28T20:18:48.644Z,98754.44
2022-11-28T20:21:19.826Z,98753.77
2022-11-28T20:23:49.505Z,98753.91
2022-11-28T20:26:18.123Z,98753.56
2022-11-28T20:28:45.569Z,98752.03
2022-11-28T20:31:30.161Z,98752.39
2022-11-28T20:33:57.702Z,98753.40
2022-11-28T20:36:25.961Z,98751.03
2022-11-28T20:38:53.516Z,98750.36
2022-11-28T20:41:21.403Z,98750.02
2022-11-28T20:43:48.762Z,98750.20
2022-11-28T20:46:21.206Z,98752.90
2022-11-28T20:48:49.626Z,98754.77
2022-11-28T20:51:22.755Z,98758.14
2022-11-28T20:53:49.258Z,98750.67
2022-11-28T20:56:24.204Z,98756.27
2022-11-28T20:58:51.366Z,98754.38
2022-11-28T21:01:23.327Z,98754.53
2022-11-28T21:03:50.670Z,98752.98
2022-11-28T21:06:17.755Z,98755.36
2022-11-28T21:08:44.563Z,98753.49
2022-11-28T21:11:43.810Z,98753.30
2022-11-28T21:14:08.831Z,98754.14
2022-11-28T21:16:35.807Z,98751.22
2022-11-28T21:19:05.750Z,98752.25
2022-11-28T21:21:34.383Z,98748.84
2022-11-28T21:24:05.062Z,98750.39
2022-11-28T21:26:37.590Z,98751.74
2022-11-28T21:29:08.892Z,98750.73
2022-11-28T21:31:39.773Z,98750.02
2022-11-28T21:34:06.479Z,98748.31
2022-11-28T21:36:33.015Z,98750.33
2022-11-28T21:39:01.300Z,98748.30
2022-11-28T21:41:32.546Z,98748.29
2022-11-28T21:44:00.217Z,98749.67
2022-11-28T21:46:27.460Z,98752.89
2022-11-28T21:48:53.968Z,98750.84
2022-11-28T21:51:22.998Z,98754.06
2022-11-28T21:53:49.646Z,98754.71
2022-11-28T21:56:16.288Z,98756.77
2022-11-28T21:58:42.864Z,98754.04
2022-11-28T22:01:12.281Z,98748.27
2022-11-28T22:03:40.457Z,98753.21
2022-11-28T22:06:08.986Z,98749.29
2022-11-28T22:08:35.812Z,98752.50
2022-11-28T22:11:06.708Z,98755.20
2022-11-28T22:13:33.267Z,98756.37
2022-11-28T22:15:59.903Z,98754.33
2022-11-28T22:18:29.551Z,98754.80
2022-11-28T22:21:12.915Z,98757.36
2022-11-28T22:23:50.894Z,98757.35
2022-11-28T22:26:17.624Z,98755.48
2022-11-28T22:28:47.884Z,98756.02
2022-11-28T22:31:20.042Z,98756.69
2022-11-28T22:33:48.547Z,98754.98
2022-11-28T22:36:17.653Z,98751.77
2022-11-28T22:38:45.538Z,98755.52
2022-11-28T22:41:19.806Z,98756.18
2022-11-28T22:43:51.271Z,98755.65
2022-11-28T22:46:17.907Z,98758.33
2022-11-28T22:48:44.617Z,98754.91
2022-11-28T22:51:15.800Z,98755.10
2022-11-28T22:53:42.493Z,98757.27
2022-11-28T22:56:12.783Z,98753.20
2022-11-28T22:58:42.849Z,98750.80
2022-11-28T23:01:15.358Z,98748.05
2022-11-28T23:03:41.863Z,98747.36
2022-11-28T23:06:14.032Z,98748.84
2022-11-28T23:08:41.594Z,98753.08
2022-11-28T23:11:17.008Z,98754.09
2022-11-28T23:13:44.794Z,98752.55
2022-11-28T23:16:24.249Z,98754.77
2022-11-28T23:18:53.307Z,98753.41
2022-11-28T23:21:21.749Z,98753.56
2022-11-28T23:23:48.709Z,98751.84
2022-11-28T23:26:20.811Z,98753.55
2022-11-28T23:28:47.811Z,98757.13
2022-11-28T23:31:23.751Z,98758.15
2022-11-28T23:33:51.693Z,98760.33
2022-11-28T23:36:24.872Z,98762.84
2022-11-28T23:38:57.226Z,98757.56
2022-11-28T23:41:24.727Z,98761.41
2022-11-28T23:43:51.223Z,98762.40
2022-11-28T23:46:19.589Z,98767.32
2022-11-28T23:48:47.071Z,98768.67
2022-11-28T23:51:15.948Z,98770.20
2022-11-28T23:53:43.515Z,98765.74
2022-11-28T23:56:19.624Z,98768.95
2022-11-28T23:58:46.627Z,98764.52
